Norwegian Breakaway — C6ZJ3 — position and weather

sailwx.info

Track history (hours):
 
Tides and Currents Weather Stations Pressure Air Temp Water Temp Dewpoint Dewpoint Depression Visibility Wind Speed Wind Dir Waves Ship Positions

Norwegian Breakaway

Last reported at 2018-Aug-17 19:25 UTC. Time now 2018-Aug-18 00:46 UTC.
Position N 55°18' E 011°03'.

Length 325 m; draft 8.6 m.

Type: Passenger vessel. MMSI: 311050800.

Date/timePositionNaut miles runAvg speedWind from/ knotsBaromVisibWave heightAir tempDewpointWater temp
2018-Aug-17 19:25N 55°18' E 011°03'712.3
2018-Aug-17 18:53N 55°12' E 011°06'813.6
2018-Aug-17 18:17N 55°04' E 011°02'415.1
2018-Aug-17 18:00N 54°60' E 011°02'714.6
2018-Aug-17 17:30N 54°54' E 010°54'714.2
2018-Aug-17 17:00N 54°47' E 010°53'713.6
2018-Aug-17 16:30N 54°41' E 010°57'815.4
2018-Aug-17 16:00N 54°37' E 011°09'713.8
2018-Aug-17 15:30N 54°34' E 011°19'714.1
2018-Aug-17 15:00N 54°31' E 011°30'1514.6
2018-Aug-17 14:00N 54°27' E 011°54'714.8
2018-Aug-17 13:30N 54°26' E 012°07'914.2
2018-Aug-17 12:51N 54°34' E 012°15'715.2
2018-Aug-17 12:25N 54°39' E 012°22'715.2
2018-Aug-17 11:56N 54°44' E 012°32'2215.5
2018-Aug-17 10:29N 54°52' E 013°08'816.6
2018-Aug-17 10:00N 54°55' E 013°21'916.5
2018-Aug-17 09:29N 54°58' E 013°35'816.5
2018-Aug-17 08:59N 55°01' E 013°48'816.3
2018-Aug-17 08:31N 55°04' E 014°01'816.2
2018-Aug-17 08:00N 55°09' E 014°12'816.9
2018-Aug-17 07:31N 55°16' E 014°20'816.7
2018-Aug-17 07:00N 55°23' E 014°29'816.4
2018-Aug-17 06:31N 55°28' E 014°40'816.7
2018-Aug-17 06:01N 55°32' E 014°53'918.6
2018-Aug-17 05:31N 55°36' E 015°08'1020.1
2018-Aug-17 05:01N 55°41' E 015°24'1020.2
2018-Aug-17 04:31N 55°45' E 015°40'1020.2
2018-Aug-17 04:01N 55°50' E 015°56'1020.3
2018-Aug-17 03:31N 55°55' E 016°11'1020.2
2018-Aug-17 03:00N 56°01' E 016°26'1020.1
2018-Aug-17 02:31N 56°07' E 016°41'1019.3
2018-Aug-17 02:01N 56°15' E 016°52'1019.7
2018-Aug-17 01:31N 56°23' E 017°00'1019.5
2018-Aug-17 01:01N 56°32' E 017°07'1019.5
2018-Aug-17 00:30N 56°41' E 017°12'1019.5
2018-Aug-17 00:01N 56°51' E 017°18'1019.7
2018-Aug-16 23:30N 57°00' E 017°23'1019.8
2018-Aug-16 23:00N 57°10' E 017°29'1019.5
2018-Aug-16 22:30N 57°19' E 017°35'1219.4
2018-Aug-16 21:54N 57°30' E 017°40'819.4
2018-Aug-16 21:30N 57°38' E 017°42'1019.4
2018-Aug-16 20:58N 57°48' E 017°44'3419.3
2018-Aug-16 19:12N 58°22' E 017°50'419.2
2018-Aug-16 19:01N 58°26' E 017°50'1019.3
2018-Aug-16 18:30N 58°35' E 017°53'816.2
2018-Aug-16 18:00N 58°43' E 017°53'816.9
2018-Aug-16 17:30N 58°51' E 017°60'4 7.4
2018-Aug-16 17:01N 58°55' E 017°58'0 0.0
2018-Aug-16 16:28N 58°55' E 017°58'0 0.0
2018-Aug-16 15:58N 58°55' E 017°58'0 0.0
2018-Aug-16 15:28N 58°55' E 017°58'0 0.0
2018-Aug-16 14:58N 58°55' E 017°58'0 0.0
2018-Aug-16 14:28N 58°55' E 017°58'0 0.0
2018-Aug-16 14:00N 58°55' E 017°58'0 0.0
2018-Aug-16 13:30N 58°55' E 017°58'0 0.0
2018-Aug-16 12:58N 58°55' E 017°58'0 0.0
2018-Aug-16 12:30N 58°55' E 017°58'0 0.0
2018-Aug-16 11:59N 58°55' E 017°58'0 0.0
2018-Aug-16 11:29N 58°55' E 017°58'0 0.0
2018-Aug-16 11:00N 58°55' E 017°58'0 0.0
2018-Aug-16 10:28N 58°55' E 017°58'0 0.0
2018-Aug-16 09:58N 58°55' E 017°58'0 0.0
2018-Aug-16 09:30N 58°55' E 017°58'0 0.0
2018-Aug-16 08:59N 58°55' E 017°58'0 0.0
2018-Aug-16 08:28N 58°55' E 017°58'0 0.0
2018-Aug-16 08:00N 58°55' E 017°58'0 0.0
2018-Aug-16 07:30N 58°55' E 017°58'0 0.0
2018-Aug-16 07:00N 58°55' E 017°58'0 0.0
2018-Aug-16 06:30N 58°55' E 017°58'0 0.0
2018-Aug-16 06:00N 58°55' E 017°58'0 0.0
2018-Aug-16 05:29N 58°55' E 017°58'0 0.0
2018-Aug-16 04:58N 58°55' E 017°58'0 0.0
2018-Aug-16 04:30N 58°55' E 017°58'0 0.0
2018-Aug-16 04:01N 58°55' E 017°58'3 5.3
2018-Aug-16 03:30N 58°53' E 018°02'714.7
2018-Aug-16 03:00N 58°47' E 018°11'1019.4
2018-Aug-16 02:28N 58°47' E 018°31'817.8
2018-Aug-16 02:00N 58°49' E 018°46'7617.0
2018-Aug-15 21:33N 59°14' E 021°04'117.2
2018-Aug-15 21:28N 59°15' E 021°07'817.2
2018-Aug-15 21:00N 59°18' E 021°22'817.2
2018-Aug-15 20:30N 59°20' E 021°37'917.0
2018-Aug-15 20:00N 59°23' E 021°53'2116.6
2018-Aug-15 18:44N 59°30' E 022°33'1316.6
2018-Aug-15 17:56N 59°34' E 022°58'716.4
2018-Aug-15 17:30N 59°36' E 023°11'816.4
2018-Aug-15 17:00N 59°39' E 023°26'816.4
2018-Aug-15 16:30N 59°41' E 023°42'816.5
2018-Aug-15 16:00N 59°44' E 023°57'1016.6
2018-Aug-15 15:25N 59°47' E 024°16'816.1
2018-Aug-15 14:57N 59°50' E 024°29'716.0
2018-Aug-15 14:30N 59°54' E 024°41'816.1
2018-Aug-15 14:00N 59°59' E 024°53'612.5
2018-Aug-15 13:31N 60°05' E 024°54'4 7.1
2018-Aug-15 12:59N 60°09' E 024°55'0 0.0
2018-Aug-15 12:29N 60°09' E 024°55'0 0.0
2018-Aug-15 11:59N 60°09' E 024°55'0 0.0
2018-Aug-15 11:28N 60°09' E 024°55'0 0.0
2018-Aug-15 11:00N 60°09' E 024°55'0 0.0
2018-Aug-15 10:29N 60°09' E 024°55'0 0.0
2018-Aug-15 09:59N 60°09' E 024°55'0 0.0
2018-Aug-15 09:29N 60°09' E 024°55'0 0.0
2018-Aug-15 08:59N 60°09' E 024°55'0 0.0
2018-Aug-15 08:26N 60°09' E 024°55'0 0.0
2018-Aug-15 07:59N 60°09' E 024°55'0 0.0
2018-Aug-15 07:31N 60°09' E 024°55'0 0.0
2018-Aug-15 06:59N 60°09' E 024°55'0 0.0
2018-Aug-15 06:30N 60°09' E 024°55'0 0.0
2018-Aug-15 05:58N 60°09' E 024°55'0 0.0
2018-Aug-15 05:27N 60°09' E 024°55'0 0.0
2018-Aug-15 05:00N 60°09' E 024°55'0 0.0
2018-Aug-15 04:30N 60°09' E 024°55'0 0.0
2018-Aug-15 04:00N 60°09' E 024°55'0 0.0
2018-Aug-15 03:30N 60°09' E 024°55'2 3.4
2018-Aug-15 03:00N 60°07' E 024°54'815.9
2018-Aug-15 02:31N 59°60' E 024°58'816.0
2018-Aug-15 02:00N 59°56' E 025°12'1019.8
2018-Aug-15 01:31N 59°55' E 025°32'918.7
2018-Aug-15 01:01N 59°56' E 025°50'917.6
2018-Aug-15 00:30N 59°58' E 026°08'1018.0
2018-Aug-14 23:58N 60°00' E 026°26'817.6
2018-Aug-14 23:31N 60°01' E 026°42'2017.1
2018-Aug-14 22:21N 60°04' E 027°22'617.6
2018-Aug-14 22:00N 60°08' E 027°32'917.2
2018-Aug-14 21:30N 60°12' E 027°47'917.7
2018-Aug-14 21:00N 60°09' E 028°04'917.3
2018-Aug-14 20:30N 60°06' E 028°20'816.8
2018-Aug-14 20:00N 60°03' E 028°36'917.3
2018-Aug-14 19:29N 60°03' E 028°54'2613.8
2018-Aug-14 17:35N 59°59' E 029°46'1 9.0
2018-Aug-14 17:30N 59°58' E 029°47'510.3
2018-Aug-14 17:00N 59°56' E 029°56'5 9.2
2018-Aug-14 16:30N 59°56' E 030°06'3 5.2
2018-Aug-14 15:58N 59°57' E 030°11'0 0.0
2018-Aug-14 15:28N 59°57' E 030°11'0 0.0
2018-Aug-14 15:00N 59°57' E 030°11'0 0.0
2018-Aug-14 14:30N 59°57' E 030°11'0 0.0
2018-Aug-14 13:56N 59°57' E 030°11'0 0.0
2018-Aug-14 13:30N 59°57' E 030°11'0 0.0
2018-Aug-14 12:48N 59°57' E 030°11'0 0.0
2018-Aug-14 12:25N 59°57' E 030°11'0 0.0
2018-Aug-14 11:52N 59°57' E 030°11'0 0.0
2018-Aug-14 11:24N 59°57' E 030°11'0 0.0
2018-Aug-14 10:58N 59°57' E 030°11'0 0.0
2018-Aug-14 10:30N 59°57' E 030°11'0 0.0
2018-Aug-14 09:58N 59°57' E 030°11'0 0.0
2018-Aug-14 09:28N 59°57' E 030°11'0 0.0
2018-Aug-14 09:00N 59°57' E 030°11'0 0.0
2018-Aug-14 08:29N 59°57' E 030°11'0 0.0
2018-Aug-14 07:59N 59°57' E 030°11'0 0.0
2018-Aug-14 07:29N 59°57' E 030°11'0 0.0
2018-Aug-14 06:59N 59°57' E 030°11'0 0.0
2018-Aug-14 06:29N 59°57' E 030°11'0 0.0
2018-Aug-14 06:01N 59°57' E 030°11'0 0.0
2018-Aug-14 05:30N 59°57' E 030°11'0 0.0
2018-Aug-14 04:55N 59°57' E 030°11'0 0.0
2018-Aug-14 04:30N 59°57' E 030°11'0 0.0
2018-Aug-14 03:54N 59°57' E 030°11'0 0.0
2018-Aug-14 03:30N 59°57' E 030°11'0 0.0
2018-Aug-14 02:57N 59°57' E 030°11'0 0.0
2018-Aug-14 02:30N 59°57' E 030°11'0 0.0
2018-Aug-14 01:57N 59°57' E 030°11'0 0.0
2018-Aug-14 01:28N 59°57' E 030°11'0 0.0
2018-Aug-14 01:01N 59°57' E 030°11'0 0.0
2018-Aug-14 00:30N 59°57' E 030°11'0 0.0
2018-Aug-13 23:57N 59°57' E 030°11'0 0.0
2018-Aug-13 23:30N 59°57' E 030°11'0 0.0
2018-Aug-13 23:00N 59°57' E 030°11'0 0.0
2018-Aug-13 22:30N 59°57' E 030°11'0 0.0
2018-Aug-13 21:59N 59°57' E 030°11'0 0.0
2018-Aug-13 21:28N 59°57' E 030°11'0 0.0
2018-Aug-13 20:58N 59°57' E 030°11'0 0.0
2018-Aug-13 20:31N 59°57' E 030°11'0 0.0
2018-Aug-13 20:00N 59°57' E 030°11'0 0.0
2018-Aug-13 19:30N 59°57' E 030°11'0 0.0
2018-Aug-13 19:00N 59°57' E 030°11'0 0.0
2018-Aug-13 18:29N 59°57' E 030°11'0 0.0
2018-Aug-13 17:53N 59°57' E 030°11'0 0.0
2018-Aug-13 17:28N 59°57' E 030°11'0 0.0
2018-Aug-13 17:00N 59°57' E 030°11'0 0.0
2018-Aug-13 16:29N 59°57' E 030°11'0 0.0
2018-Aug-13 15:58N 59°57' E 030°11'0 0.0
2018-Aug-13 15:31N 59°57' E 030°11'0 0.0
2018-Aug-13 14:58N 59°57' E 030°11'0 0.0
2018-Aug-13 14:27N 59°57' E 030°11'0 0.0
2018-Aug-13 14:00N 59°57' E 030°11'0 0.0
2018-Aug-13 13:29N 59°57' E 030°11'0 0.0
2018-Aug-13 13:00N 59°57' E 030°11'0 0.0
2018-Aug-13 12:23N 59°57' E 030°11'0 0.0
2018-Aug-13 11:59N 59°57' E 030°11'0 0.0
2018-Aug-13 11:28N 59°57' E 030°11'0 0.0
2018-Aug-13 11:00N 59°57' E 030°11'0 0.0
2018-Aug-13 10:30N 59°57' E 030°11'0 0.0
2018-Aug-13 09:58N 59°57' E 030°11'0 0.0
2018-Aug-13 09:28N 59°57' E 030°11'0 0.0
2018-Aug-13 08:52N 59°57' E 030°11'0 0.0
2018-Aug-13 08:28N 59°57' E 030°11'0 0.0
2018-Aug-13 08:00N 59°57' E 030°11'0 0.0
2018-Aug-13 07:30N 59°57' E 030°11'0 0.0
2018-Aug-13 07:00N 59°57' E 030°11'0 0.0
2018-Aug-13 06:29N 59°57' E 030°11'0 0.0
2018-Aug-13 05:57N 59°57' E 030°11'0 0.0
2018-Aug-13 05:30N 59°57' E 030°11'0 0.0
2018-Aug-13 05:00N 59°57' E 030°11'0 0.0
2018-Aug-13 04:26N 59°57' E 030°11'0 0.0
2018-Aug-13 04:01N 59°57' E 030°11'0 0.0
2018-Aug-13 03:30N 59°57' E 030°11'2 3.5
2018-Aug-13 03:00N 59°57' E 030°08'5 9.5
2018-Aug-13 02:30N 59°56' E 029°58'510.4
2018-Aug-13 02:00N 59°58' E 029°49'5 9.8
2018-Aug-13 01:30N 59°60' E 029°40'1812.8
2018-Aug-13 00:07N 60°02' E 029°05'113.1
2018-Aug-13 00:00N 60°02' E 029°02'713.4
2018-Aug-12 23:31N 60°02' E 028°48'714.4
2018-Aug-12 23:00N 60°02' E 028°34'714.4
2018-Aug-12 22:30N 60°05' E 028°21'714.4
2018-Aug-12 22:01N 60°08' E 028°08'714.4
2018-Aug-12 21:30N 60°10' E 027°54'713.0
2018-Aug-12 21:00N 60°09' E 027°41'713.9
2018-Aug-12 20:30N 60°05' E 027°29'713.8
2018-Aug-12 20:00N 60°02' E 027°17'713.9
2018-Aug-12 19:30N 59°59' E 027°05'713.6
2018-Aug-12 19:00N 59°59' E 026°51'713.8
2018-Aug-12 18:31N 59°59' E 026°37'714.0
2018-Aug-12 18:00N 59°58' E 026°24'3015.1
2018-Aug-12 16:01N 59°49' E 025°27'115.7
2018-Aug-12 15:57N 59°48' E 025°25'715.7
2018-Aug-12 15:30N 59°46' E 025°11'815.8
2018-Aug-12 15:01N 59°44' E 024°57'815.8
2018-Aug-12 14:31N 59°39' E 024°44'714.2
2018-Aug-12 14:01N 59°32' E 024°44'5 8.9
2018-Aug-12 13:28N 59°27' E 024°46'0 0.0
2018-Aug-12 13:00N 59°27' E 024°46'0 0.0
2018-Aug-12 12:30N 59°27' E 024°46'0 0.0
2018-Aug-12 11:59N 59°27' E 024°46'0 0.0
2018-Aug-12 11:29N 59°27' E 024°46'0 0.0
2018-Aug-12 11:01N 59°27' E 024°46'0 0.0
2018-Aug-12 10:28N 59°27' E 024°46'0 0.0
2018-Aug-12 09:59N 59°27' E 024°46'0 0.0
2018-Aug-12 09:29N 59°27' E 024°46'0 0.0
2018-Aug-12 08:59N 59°27' E 024°46'0 0.0
2018-Aug-12 08:29N 59°27' E 024°46'0 0.0
2018-Aug-12 07:59N 59°27' E 024°46'0 0.0
2018-Aug-12 07:28N 59°27' E 024°46'0 0.0
2018-Aug-12 06:57N 59°27' E 024°46'0 0.0
2018-Aug-12 06:29N 59°27' E 024°46'0 0.0
2018-Aug-12 06:01N 59°27' E 024°46'0 0.1
2018-Aug-12 05:31N 59°27' E 024°46'3 5.6
2018-Aug-12 05:01N 59°30' E 024°45'917.7
2018-Aug-12 04:31N 59°38' E 024°36'917.9
2018-Aug-12 04:00N 59°39' E 024°19'918.8
2018-Aug-12 03:30N 59°37' E 024°01'917.4
2018-Aug-12 03:00N 59°34' E 023°44'917.4
2018-Aug-12 02:30N 59°33' E 023°28'816.7
2018-Aug-12 02:01N 59°31' E 023°11'917.2
2018-Aug-12 01:28N 59°28' E 022°54'26216.7
2018-Aug-11 09:48N 56°16' E 017°18'517.1
2018-Aug-11 09:30N 56°13' E 017°11'917.2
2018-Aug-11 09:00N 56°08' E 016°59'917.3
2018-Aug-11 08:31N 56°02' E 016°46'917.4
2018-Aug-11 08:00N 55°58' E 016°33'917.5
2018-Aug-11 07:31N 55°53' E 016°20'917.4
2018-Aug-11 07:00N 55°49' E 016°07'917.6
2018-Aug-11 06:30N 55°44' E 015°53'917.8
2018-Aug-11 06:00N 55°40' E 015°39'917.7
2018-Aug-11 05:31N 55°37' E 015°25'917.2
2018-Aug-11 05:01N 55°34' E 015°10'917.2
2018-Aug-11 04:31N 55°30' E 014°57'917.9
2018-Aug-11 04:00N 55°25' E 014°43'917.5
2018-Aug-11 03:29N 55°19' E 014°31'917.8
2018-Aug-11 03:00N 55°13' E 014°22'1117.8
2018-Aug-11 02:25N 55°04' E 014°10'4817.1
2018-Aug-10 23:37N 54°47' E 012°53'216.0
2018-Aug-10 23:30N 54°46' E 012°50'816.0
2018-Aug-10 23:00N 54°43' E 012°37'816.3
2018-Aug-10 22:30N 54°38' E 012°26'1515.2
2018-Aug-10 21:30N 54°26' E 012°11'714.0
2018-Aug-10 21:00N 54°19' E 012°06'612.4
2018-Aug-10 20:30N 54°13' E 012°04'3 0.2
2018-Aug-10 04:47N 54°10' E 012°06'0 1.3
2018-Aug-10 04:29N 54°10' E 012°06'2110.9
2018-Aug-10 02:35N 54°24' E 011°40'116.5
2018-Aug-10 02:30N 54°25' E 011°38'1019.2
2018-Aug-10 02:00N 54°30' E 011°25'1019.9
2018-Aug-10 01:30N 54°35' E 011°10'816.6
2018-Aug-10 01:00N 54°40' E 010°58'714.3
2018-Aug-10 00:30N 54°46' E 010°51'714.7
2018-Aug-10 00:00N 54°53' E 010°52'714.7
2018-Aug-09 23:30N 54°59' E 010°60'917.8
2018-Aug-09 23:00N 55°08' E 011°02'916.3
2018-Aug-09 22:28N 55°16' E 011°04'2418.5
2018-Aug-09 21:10N 55°38' E 010°46'6117.4
2018-Aug-09 17:40N 56°13' E 012°15'319.3
2018-Aug-09 17:31N 56°12' E 012°20'1019.6
2018-Aug-09 17:00N 56°06' E 012°34'816.4
2018-Aug-09 16:30N 55°59' E 012°42'917.9
2018-Aug-09 16:00N 55°50' E 012°45'815.1
2018-Aug-09 15:30N 55°43' E 012°39'1 2.3
2018-Aug-09 14:59N 55°43' E 012°37'0 0.0
2018-Aug-09 14:28N 55°43' E 012°37'0 0.0
2018-Aug-09 14:00N 55°43' E 012°37'0 0.0
2018-Aug-09 13:30N 55°43' E 012°37'0 0.0
2018-Aug-09 13:00N 55°43' E 012°37'0 0.0
2018-Aug-09 12:28N 55°43' E 012°37'0 0.0
2018-Aug-09 11:58N 55°43' E 012°37'0 0.0
2018-Aug-09 11:30N 55°43' E 012°37'0 0.0
2018-Aug-09 10:59N 55°43' E 012°37'0 0.0
2018-Aug-09 10:29N 55°43' E 012°37'0 0.0
2018-Aug-09 10:00N 55°43' E 012°37'0 0.0
2018-Aug-09 09:30N 55°43' E 012°37'0 0.0
2018-Aug-09 09:00N 55°43' E 012°37'0 0.0
2018-Aug-09 08:30N 55°43' E 012°37'0 0.0
2018-Aug-09 08:00N 55°43' E 012°37'0 0.0
2018-Aug-09 07:30N 55°43' E 012°37'0 0.0
2018-Aug-09 06:59N 55°43' E 012°37'0 0.0
2018-Aug-09 06:29N 55°43' E 012°37'0 0.0
2018-Aug-09 05:59N 55°43' E 012°37'0 0.0
2018-Aug-09 05:29N 55°43' E 012°37'0 0.0
2018-Aug-09 04:58N 55°43' E 012°37'0 0.0
2018-Aug-09 04:29N 55°43' E 012°37'0 0.1
2018-Aug-09 04:00N 55°43' E 012°37'2 3.7
2018-Aug-09 03:30N 55°44' E 012°40'612.8
2018-Aug-09 03:01N 55°50' E 012°42'714.2
2018-Aug-09 02:31N 55°57' E 012°39'612.6
2018-Aug-09 02:00N 56°03' E 012°38'713.0
2018-Aug-09 01:30N 56°08' E 012°29'1015.7
2018-Aug-09 00:52N 56°12' E 012°14'1215.9
2018-Aug-09 00:07N 56°10' E 011°53'515.8
2018-Aug-08 23:48N 56°08' E 011°44'5511.7
2018-Aug-08 19:06N 55°18' E 011°03'115.0
2018-Aug-08 19:00N 55°17' E 011°04'713.9
2018-Aug-08 18:30N 55°10' E 011°04'815.5
2018-Aug-08 18:00N 55°02' E 011°02'714.3
2018-Aug-08 17:30N 54°56' E 010°56'815.0
2018-Aug-08 17:00N 54°49' E 010°52'714.8
2018-Aug-08 16:30N 54°42' E 010°55'815.3
2018-Aug-08 16:00N 54°38' E 011°07'815.2
2018-Aug-08 15:30N 54°34' E 011°18'815.1
2018-Aug-08 15:00N 54°31' E 011°30'815.0
2018-Aug-08 14:30N 54°28' E 011°42'715.0
2018-Aug-08 14:00N 54°26' E 011°54'815.7
2018-Aug-08 13:30N 54°26' E 012°08'714.7
2018-Aug-08 13:00N 54°33' E 012°14'714.9
2018-Aug-08 12:30N 54°38' E 012°22'815.3
2018-Aug-08 12:00N 54°43' E 012°33'815.6
2018-Aug-08 11:30N 54°47' E 012°45'815.9
2018-Aug-08 11:00N 54°50' E 012°57'917.6
2018-Aug-08 10:30N 54°53' E 013°12'917.7
2018-Aug-08 10:00N 54°56' E 013°26'916.9
2018-Aug-08 09:30N 54°59' E 013°40'816.2
2018-Aug-08 09:00N 55°02' E 013°53'815.4
2018-Aug-08 08:30N 55°05' E 014°05'815.5
2018-Aug-08 08:00N 55°11' E 014°14'815.5
2018-Aug-08 07:30N 55°17' E 014°23'816.2
2018-Aug-08 07:00N 55°23' E 014°32'816.5
2018-Aug-08 06:30N 55°29' E 014°42'816.7
2018-Aug-08 06:00N 55°33' E 014°55'917.9
2018-Aug-08 05:30N 55°37' E 015°09'1020.1
2018-Aug-08 05:00N 55°41' E 015°25'1020.1
2018-Aug-08 04:30N 55°46' E 015°41'1020.2
2018-Aug-08 04:00N 55°51' E 015°56'1020.0
2018-Aug-08 03:30N 55°56' E 016°11'1019.9
2018-Aug-08 03:01N 56°02' E 016°26'1019.9
2018-Aug-08 02:30N 56°08' E 016°40'1019.5
2018-Aug-08 02:00N 56°15' E 016°53'1019.5
2018-Aug-08 01:31N 56°23' E 017°02'1019.6
2018-Aug-08 01:00N 56°33' E 017°07'1019.6
2018-Aug-08 00:30N 56°42' E 017°13'1019.6
2018-Aug-08 00:01N 56°51' E 017°18'1019.8
2018-Aug-07 23:30N 57°01' E 017°24'1019.7
2018-Aug-07 23:00N 57°10' E 017°29'1019.3
2018-Aug-07 22:30N 57°19' E 017°34'919.0
2018-Aug-07 22:00N 57°29' E 017°39'1019.0
2018-Aug-07 21:30N 57°38' E 017°42'918.9
2018-Aug-07 21:00N 57°47' E 017°44'1019.0
2018-Aug-07 20:30N 57°57' E 017°45'1018.9
2018-Aug-07 19:59N 58°07' E 017°47'919.2
2018-Aug-07 19:30N 58°16' E 017°49'  
Track history (hours):
 
Tides and Currents Weather Stations Pressure Air Temp Water Temp Dewpoint Dewpoint Depression Visibility Wind Speed Wind Dir Waves Ship Positions

Norwegian Breakaway

Last reported at 2018-Aug-17 19:25 UTC. Time now 2018-Aug-18 00:46 UTC.
Position N 55°18' E 011°03'.

Length 325 m; draft 8.6 m.

Type: Passenger vessel. MMSI: 311050800.

Date/timePositionNaut miles runAvg speedWind from/ knotsBaromVisibWave heightAir tempDewpointWater temp
2018-Aug-17 19:25N 55°18' E 011°03'712.3
2018-Aug-17 18:53N 55°12' E 011°06'813.6
2018-Aug-17 18:17N 55°04' E 011°02'415.1
2018-Aug-17 18:00N 54°60' E 011°02'714.6
2018-Aug-17 17:30N 54°54' E 010°54'714.2
2018-Aug-17 17:00N 54°47' E 010°53'713.6
2018-Aug-17 16:30N 54°41' E 010°57'815.4
2018-Aug-17 16:00N 54°37' E 011°09'713.8
2018-Aug-17 15:30N 54°34' E 011°19'714.1
2018-Aug-17 15:00N 54°31' E 011°30'1514.6
2018-Aug-17 14:00N 54°27' E 011°54'714.8
2018-Aug-17 13:30N 54°26' E 012°07'914.2
2018-Aug-17 12:51N 54°34' E 012°15'715.2
2018-Aug-17 12:25N 54°39' E 012°22'715.2
2018-Aug-17 11:56N 54°44' E 012°32'2215.5
2018-Aug-17 10:29N 54°52' E 013°08'816.6
2018-Aug-17 10:00N 54°55' E 013°21'916.5
2018-Aug-17 09:29N 54°58' E 013°35'816.5
2018-Aug-17 08:59N 55°01' E 013°48'816.3
2018-Aug-17 08:31N 55°04' E 014°01'816.2
2018-Aug-17 08:00N 55°09' E 014°12'816.9
2018-Aug-17 07:31N 55°16' E 014°20'816.7
2018-Aug-17 07:00N 55°23' E 014°29'816.4
2018-Aug-17 06:31N 55°28' E 014°40'816.7
2018-Aug-17 06:01N 55°32' E 014°53'918.6
2018-Aug-17 05:31N 55°36' E 015°08'1020.1
2018-Aug-17 05:01N 55°41' E 015°24'1020.2
2018-Aug-17 04:31N 55°45' E 015°40'1020.2
2018-Aug-17 04:01N 55°50' E 015°56'1020.3
2018-Aug-17 03:31N 55°55' E 016°11'1020.2
2018-Aug-17 03:00N 56°01' E 016°26'1020.1
2018-Aug-17 02:31N 56°07' E 016°41'1019.3
2018-Aug-17 02:01N 56°15' E 016°52'1019.7
2018-Aug-17 01:31N 56°23' E 017°00'1019.5
2018-Aug-17 01:01N 56°32' E 017°07'1019.5
2018-Aug-17 00:30N 56°41' E 017°12'1019.5
2018-Aug-17 00:01N 56°51' E 017°18'1019.7
2018-Aug-16 23:30N 57°00' E 017°23'1019.8
2018-Aug-16 23:00N 57°10' E 017°29'1019.5
2018-Aug-16 22:30N 57°19' E 017°35'1219.4
2018-Aug-16 21:54N 57°30' E 017°40'819.4
2018-Aug-16 21:30N 57°38' E 017°42'1019.4
2018-Aug-16 20:58N 57°48' E 017°44'3419.3
2018-Aug-16 19:12N 58°22' E 017°50'419.2
2018-Aug-16 19:01N 58°26' E 017°50'1019.3
2018-Aug-16 18:30N 58°35' E 017°53'816.2
2018-Aug-16 18:00N 58°43' E 017°53'816.9
2018-Aug-16 17:30N 58°51' E 017°60'4 7.4
2018-Aug-16 17:01N 58°55' E 017°58'0 0.0
2018-Aug-16 16:28N 58°55' E 017°58'0 0.0
2018-Aug-16 15:58N 58°55' E 017°58'0 0.0
2018-Aug-16 15:28N 58°55' E 017°58'0 0.0
2018-Aug-16 14:58N 58°55' E 017°58'0 0.0
2018-Aug-16 14:28N 58°55' E 017°58'0 0.0
2018-Aug-16 14:00N 58°55' E 017°58'0 0.0
2018-Aug-16 13:30N 58°55' E 017°58'0 0.0
2018-Aug-16 12:58N 58°55' E 017°58'0 0.0
2018-Aug-16 12:30N 58°55' E 017°58'0 0.0
2018-Aug-16 11:59N 58°55' E 017°58'0 0.0
2018-Aug-16 11:29N 58°55' E 017°58'0 0.0
2018-Aug-16 11:00N 58°55' E 017°58'0 0.0
2018-Aug-16 10:28N 58°55' E 017°58'0 0.0
2018-Aug-16 09:58N 58°55' E 017°58'0 0.0
2018-Aug-16 09:30N 58°55' E 017°58'0 0.0
2018-Aug-16 08:59N 58°55' E 017°58'0 0.0
2018-Aug-16 08:28N 58°55' E 017°58'0 0.0
2018-Aug-16 08:00N 58°55' E 017°58'0 0.0
2018-Aug-16 07:30N 58°55' E 017°58'0 0.0
2018-Aug-16 07:00N 58°55' E 017°58'0 0.0
2018-Aug-16 06:30N 58°55' E 017°58'0 0.0
2018-Aug-16 06:00N 58°55' E 017°58'0 0.0
2018-Aug-16 05:29N 58°55' E 017°58'0 0.0
2018-Aug-16 04:58N 58°55' E 017°58'0 0.0
2018-Aug-16 04:30N 58°55' E 017°58'0 0.0
2018-Aug-16 04:01N 58°55' E 017°58'3 5.3
2018-Aug-16 03:30N 58°53' E 018°02'714.7
2018-Aug-16 03:00N 58°47' E 018°11'1019.4
2018-Aug-16 02:28N 58°47' E 018°31'817.8
2018-Aug-16 02:00N 58°49' E 018°46'7617.0
2018-Aug-15 21:33N 59°14' E 021°04'117.2
2018-Aug-15 21:28N 59°15' E 021°07'817.2
2018-Aug-15 21:00N 59°18' E 021°22'817.2
2018-Aug-15 20:30N 59°20' E 021°37'917.0
2018-Aug-15 20:00N 59°23' E 021°53'2116.6
2018-Aug-15 18:44N 59°30' E 022°33'1316.6
2018-Aug-15 17:56N 59°34' E 022°58'716.4
2018-Aug-15 17:30N 59°36' E 023°11'816.4
2018-Aug-15 17:00N 59°39' E 023°26'816.4
2018-Aug-15 16:30N 59°41' E 023°42'816.5
2018-Aug-15 16:00N 59°44' E 023°57'1016.6
2018-Aug-15 15:25N 59°47' E 024°16'816.1
2018-Aug-15 14:57N 59°50' E 024°29'716.0
2018-Aug-15 14:30N 59°54' E 024°41'816.1
2018-Aug-15 14:00N 59°59' E 024°53'612.5
2018-Aug-15 13:31N 60°05' E 024°54'4 7.1
2018-Aug-15 12:59N 60°09' E 024°55'0 0.0
2018-Aug-15 12:29N 60°09' E 024°55'0 0.0
2018-Aug-15 11:59N 60°09' E 024°55'0 0.0
2018-Aug-15 11:28N 60°09' E 024°55'0 0.0
2018-Aug-15 11:00N 60°09' E 024°55'0 0.0
2018-Aug-15 10:29N 60°09' E 024°55'0 0.0
2018-Aug-15 09:59N 60°09' E 024°55'0 0.0
2018-Aug-15 09:29N 60°09' E 024°55'0 0.0
2018-Aug-15 08:59N 60°09' E 024°55'0 0.0
2018-Aug-15 08:26N 60°09' E 024°55'0 0.0
2018-Aug-15 07:59N 60°09' E 024°55'0 0.0
2018-Aug-15 07:31N 60°09' E 024°55'0 0.0
2018-Aug-15 06:59N 60°09' E 024°55'0 0.0
2018-Aug-15 06:30N 60°09' E 024°55'0 0.0
2018-Aug-15 05:58N 60°09' E 024°55'0 0.0
2018-Aug-15 05:27N 60°09' E 024°55'0 0.0
2018-Aug-15 05:00N 60°09' E 024°55'0 0.0
2018-Aug-15 04:30N 60°09' E 024°55'0 0.0
2018-Aug-15 04:00N 60°09' E 024°55'0 0.0
2018-Aug-15 03:30N 60°09' E 024°55'2 3.4
2018-Aug-15 03:00N 60°07' E 024°54'815.9
2018-Aug-15 02:31N 59°60' E 024°58'816.0
2018-Aug-15 02:00N 59°56' E 025°12'1019.8
2018-Aug-15 01:31N 59°55' E 025°32'918.7
2018-Aug-15 01:01N 59°56' E 025°50'917.6
2018-Aug-15 00:30N 59°58' E 026°08'1018.0
2018-Aug-14 23:58N 60°00' E 026°26'817.6
2018-Aug-14 23:31N 60°01' E 026°42'2017.1
2018-Aug-14 22:21N 60°04' E 027°22'617.6
2018-Aug-14 22:00N 60°08' E 027°32'917.2
2018-Aug-14 21:30N 60°12' E 027°47'917.7
2018-Aug-14 21:00N 60°09' E 028°04'917.3
2018-Aug-14 20:30N 60°06' E 028°20'816.8
2018-Aug-14 20:00N 60°03' E 028°36'917.3
2018-Aug-14 19:29N 60°03' E 028°54'2613.8
2018-Aug-14 17:35N 59°59' E 029°46'1 9.0
2018-Aug-14 17:30N 59°58' E 029°47'510.3
2018-Aug-14 17:00N 59°56' E 029°56'5 9.2
2018-Aug-14 16:30N 59°56' E 030°06'3 5.2
2018-Aug-14 15:58N 59°57' E 030°11'0 0.0
2018-Aug-14 15:28N 59°57' E 030°11'0 0.0
2018-Aug-14 15:00N 59°57' E 030°11'0 0.0
2018-Aug-14 14:30N 59°57' E 030°11'0 0.0
2018-Aug-14 13:56N 59°57' E 030°11'0 0.0
2018-Aug-14 13:30N 59°57' E 030°11'0 0.0
2018-Aug-14 12:48N 59°57' E 030°11'0 0.0
2018-Aug-14 12:25N 59°57' E 030°11'0 0.0
2018-Aug-14 11:52N 59°57' E 030°11'0 0.0
2018-Aug-14 11:24N 59°57' E 030°11'0 0.0
2018-Aug-14 10:58N 59°57' E 030°11'0 0.0
2018-Aug-14 10:30N 59°57' E 030°11'0 0.0
2018-Aug-14 09:58N 59°57' E 030°11'0 0.0
2018-Aug-14 09:28N 59°57' E 030°11'0 0.0
2018-Aug-14 09:00N 59°57' E 030°11'0 0.0
2018-Aug-14 08:29N 59°57' E 030°11'0 0.0
2018-Aug-14 07:59N 59°57' E 030°11'0 0.0
2018-Aug-14 07:29N 59°57' E 030°11'0 0.0
2018-Aug-14 06:59N 59°57' E 030°11'0 0.0
2018-Aug-14 06:29N 59°57' E 030°11'0 0.0
2018-Aug-14 06:01N 59°57' E 030°11'0 0.0
2018-Aug-14 05:30N 59°57' E 030°11'0 0.0
2018-Aug-14 04:55N 59°57' E 030°11'0 0.0
2018-Aug-14 04:30N 59°57' E 030°11'0 0.0
2018-Aug-14 03:54N 59°57' E 030°11'0 0.0
2018-Aug-14 03:30N 59°57' E 030°11'0 0.0
2018-Aug-14 02:57N 59°57' E 030°11'0 0.0
2018-Aug-14 02:30N 59°57' E 030°11'0 0.0
2018-Aug-14 01:57N 59°57' E 030°11'0 0.0
2018-Aug-14 01:28N 59°57' E 030°11'0 0.0
2018-Aug-14 01:01N 59°57' E 030°11'0 0.0
2018-Aug-14 00:30N 59°57' E 030°11'0 0.0
2018-Aug-13 23:57N 59°57' E 030°11'0 0.0
2018-Aug-13 23:30N 59°57' E 030°11'0 0.0
2018-Aug-13 23:00N 59°57' E 030°11'0 0.0
2018-Aug-13 22:30N 59°57' E 030°11'0 0.0
2018-Aug-13 21:59N 59°57' E 030°11'0 0.0
2018-Aug-13 21:28N 59°57' E 030°11'0 0.0
2018-Aug-13 20:58N 59°57' E 030°11'0 0.0
2018-Aug-13 20:31N 59°57' E 030°11'0 0.0
2018-Aug-13 20:00N 59°57' E 030°11'0 0.0
2018-Aug-13 19:30N 59°57' E 030°11'0 0.0
2018-Aug-13 19:00N 59°57' E 030°11'0 0.0
2018-Aug-13 18:29N 59°57' E 030°11'0 0.0
2018-Aug-13 17:53N 59°57' E 030°11'0 0.0
2018-Aug-13 17:28N 59°57' E 030°11'0 0.0
2018-Aug-13 17:00N 59°57' E 030°11'0 0.0
2018-Aug-13 16:29N 59°57' E 030°11'0 0.0
2018-Aug-13 15:58N 59°57' E 030°11'0 0.0
2018-Aug-13 15:31N 59°57' E 030°11'0 0.0
2018-Aug-13 14:58N 59°57' E 030°11'0 0.0
2018-Aug-13 14:27N 59°57' E 030°11'0 0.0
2018-Aug-13 14:00N 59°57' E 030°11'0 0.0
2018-Aug-13 13:29N 59°57' E 030°11'0 0.0
2018-Aug-13 13:00N 59°57' E 030°11'0 0.0
2018-Aug-13 12:23N 59°57' E 030°11'0 0.0
2018-Aug-13 11:59N 59°57' E 030°11'0 0.0
2018-Aug-13 11:28N 59°57' E 030°11'0 0.0
2018-Aug-13 11:00N 59°57' E 030°11'0 0.0
2018-Aug-13 10:30N 59°57' E 030°11'0 0.0
2018-Aug-13 09:58N 59°57' E 030°11'0 0.0
2018-Aug-13 09:28N 59°57' E 030°11'0 0.0
2018-Aug-13 08:52N 59°57' E 030°11'0 0.0
2018-Aug-13 08:28N 59°57' E 030°11'0 0.0
2018-Aug-13 08:00N 59°57' E 030°11'0 0.0
2018-Aug-13 07:30N 59°57' E 030°11'0 0.0
2018-Aug-13 07:00N 59°57' E 030°11'0 0.0
2018-Aug-13 06:29N 59°57' E 030°11'0 0.0
2018-Aug-13 05:57N 59°57' E 030°11'0 0.0
2018-Aug-13 05:30N 59°57' E 030°11'0 0.0
2018-Aug-13 05:00N 59°57' E 030°11'0 0.0
2018-Aug-13 04:26N 59°57' E 030°11'0 0.0
2018-Aug-13 04:01N 59°57' E 030°11'0 0.0
2018-Aug-13 03:30N 59°57' E 030°11'2 3.5
2018-Aug-13 03:00N 59°57' E 030°08'5 9.5
2018-Aug-13 02:30N 59°56' E 029°58'510.4
2018-Aug-13 02:00N 59°58' E 029°49'5 9.8
2018-Aug-13 01:30N 59°60' E 029°40'1812.8
2018-Aug-13 00:07N 60°02' E 029°05'113.1
2018-Aug-13 00:00N 60°02' E 029°02'713.4
2018-Aug-12 23:31N 60°02' E 028°48'714.4
2018-Aug-12 23:00N 60°02' E 028°34'714.4
2018-Aug-12 22:30N 60°05' E 028°21'714.4
2018-Aug-12 22:01N 60°08' E 028°08'714.4
2018-Aug-12 21:30N 60°10' E 027°54'713.0
2018-Aug-12 21:00N 60°09' E 027°41'713.9
2018-Aug-12 20:30N 60°05' E 027°29'713.8
2018-Aug-12 20:00N 60°02' E 027°17'713.9
2018-Aug-12 19:30N 59°59' E 027°05'713.6
2018-Aug-12 19:00N 59°59' E 026°51'713.8
2018-Aug-12 18:31N 59°59' E 026°37'714.0
2018-Aug-12 18:00N 59°58' E 026°24'3015.1
2018-Aug-12 16:01N 59°49' E 025°27'115.7
2018-Aug-12 15:57N 59°48' E 025°25'715.7
2018-Aug-12 15:30N 59°46' E 025°11'815.8
2018-Aug-12 15:01N 59°44' E 024°57'815.8
2018-Aug-12 14:31N 59°39' E 024°44'714.2
2018-Aug-12 14:01N 59°32' E 024°44'5 8.9
2018-Aug-12 13:28N 59°27' E 024°46'0 0.0
2018-Aug-12 13:00N 59°27' E 024°46'0 0.0
2018-Aug-12 12:30N 59°27' E 024°46'0 0.0
2018-Aug-12 11:59N 59°27' E 024°46'0 0.0
2018-Aug-12 11:29N 59°27' E 024°46'0 0.0
2018-Aug-12 11:01N 59°27' E 024°46'0 0.0
2018-Aug-12 10:28N 59°27' E 024°46'0 0.0
2018-Aug-12 09:59N 59°27' E 024°46'0 0.0
2018-Aug-12 09:29N 59°27' E 024°46'0 0.0
2018-Aug-12 08:59N 59°27' E 024°46'0 0.0
2018-Aug-12 08:29N 59°27' E 024°46'0 0.0
2018-Aug-12 07:59N 59°27' E 024°46'0 0.0
2018-Aug-12 07:28N 59°27' E 024°46'0 0.0
2018-Aug-12 06:57N 59°27' E 024°46'0 0.0
2018-Aug-12 06:29N 59°27' E 024°46'0 0.0
2018-Aug-12 06:01N 59°27' E 024°46'0 0.1
2018-Aug-12 05:31N 59°27' E 024°46'3 5.6
2018-Aug-12 05:01N 59°30' E 024°45'917.7
2018-Aug-12 04:31N 59°38' E 024°36'917.9
2018-Aug-12 04:00N 59°39' E 024°19'918.8
2018-Aug-12 03:30N 59°37' E 024°01'917.4
2018-Aug-12 03:00N 59°34' E 023°44'917.4
2018-Aug-12 02:30N 59°33' E 023°28'816.7
2018-Aug-12 02:01N 59°31' E 023°11'917.2
2018-Aug-12 01:28N 59°28' E 022°54'26216.7
2018-Aug-11 09:48N 56°16' E 017°18'517.1
2018-Aug-11 09:30N 56°13' E 017°11'917.2
2018-Aug-11 09:00N 56°08' E 016°59'917.3
2018-Aug-11 08:31N 56°02' E 016°46'917.4
2018-Aug-11 08:00N 55°58' E 016°33'917.5
2018-Aug-11 07:31N 55°53' E 016°20'917.4
2018-Aug-11 07:00N 55°49' E 016°07'917.6
2018-Aug-11 06:30N 55°44' E 015°53'917.8
2018-Aug-11 06:00N 55°40' E 015°39'917.7
2018-Aug-11 05:31N 55°37' E 015°25'917.2
2018-Aug-11 05:01N 55°34' E 015°10'917.2
2018-Aug-11 04:31N 55°30' E 014°57'917.9
2018-Aug-11 04:00N 55°25' E 014°43'917.5
2018-Aug-11 03:29N 55°19' E 014°31'917.8
2018-Aug-11 03:00N 55°13' E 014°22'1117.8
2018-Aug-11 02:25N 55°04' E 014°10'4817.1
2018-Aug-10 23:37N 54°47' E 012°53'216.0
2018-Aug-10 23:30N 54°46' E 012°50'816.0
2018-Aug-10 23:00N 54°43' E 012°37'816.3
2018-Aug-10 22:30N 54°38' E 012°26'1515.2
2018-Aug-10 21:30N 54°26' E 012°11'714.0
2018-Aug-10 21:00N 54°19' E 012°06'612.4
2018-Aug-10 20:30N 54°13' E 012°04'3 0.2
2018-Aug-10 04:47N 54°10' E 012°06'0 1.3
2018-Aug-10 04:29N 54°10' E 012°06'2110.9
2018-Aug-10 02:35N 54°24' E 011°40'116.5
2018-Aug-10 02:30N 54°25' E 011°38'1019.2
2018-Aug-10 02:00N 54°30' E 011°25'1019.9
2018-Aug-10 01:30N 54°35' E 011°10'816.6
2018-Aug-10 01:00N 54°40' E 010°58'714.3
2018-Aug-10 00:30N 54°46' E 010°51'714.7
2018-Aug-10 00:00N 54°53' E 010°52'714.7
2018-Aug-09 23:30N 54°59' E 010°60'917.8
2018-Aug-09 23:00N 55°08' E 011°02'916.3
2018-Aug-09 22:28N 55°16' E 011°04'2418.5
2018-Aug-09 21:10N 55°38' E 010°46'6117.4
2018-Aug-09 17:40N 56°13' E 012°15'319.3
2018-Aug-09 17:31N 56°12' E 012°20'1019.6
2018-Aug-09 17:00N 56°06' E 012°34'816.4
2018-Aug-09 16:30N 55°59' E 012°42'917.9
2018-Aug-09 16:00N 55°50' E 012°45'815.1
2018-Aug-09 15:30N 55°43' E 012°39'1 2.3
2018-Aug-09 14:59N 55°43' E 012°37'0 0.0
2018-Aug-09 14:28N 55°43' E 012°37'0 0.0
2018-Aug-09 14:00N 55°43' E 012°37'0 0.0
2018-Aug-09 13:30N 55°43' E 012°37'0 0.0
2018-Aug-09 13:00N 55°43' E 012°37'0 0.0
2018-Aug-09 12:28N 55°43' E 012°37'0 0.0
2018-Aug-09 11:58N 55°43' E 012°37'0 0.0
2018-Aug-09 11:30N 55°43' E 012°37'0 0.0
2018-Aug-09 10:59N 55°43' E 012°37'0 0.0
2018-Aug-09 10:29N 55°43' E 012°37'0 0.0
2018-Aug-09 10:00N 55°43' E 012°37'0 0.0
2018-Aug-09 09:30N 55°43' E 012°37'0 0.0
2018-Aug-09 09:00N 55°43' E 012°37'0 0.0
2018-Aug-09 08:30N 55°43' E 012°37'0 0.0
2018-Aug-09 08:00N 55°43' E 012°37'0 0.0
2018-Aug-09 07:30N 55°43' E 012°37'0 0.0
2018-Aug-09 06:59N 55°43' E 012°37'0 0.0
2018-Aug-09 06:29N 55°43' E 012°37'0 0.0
2018-Aug-09 05:59N 55°43' E 012°37'0 0.0
2018-Aug-09 05:29N 55°43' E 012°37'0 0.0
2018-Aug-09 04:58N 55°43' E 012°37'0 0.0
2018-Aug-09 04:29N 55°43' E 012°37'0 0.1
2018-Aug-09 04:00N 55°43' E 012°37'2 3.7
2018-Aug-09 03:30N 55°44' E 012°40'612.8
2018-Aug-09 03:01N 55°50' E 012°42'714.2
2018-Aug-09 02:31N 55°57' E 012°39'612.6
2018-Aug-09 02:00N 56°03' E 012°38'713.0
2018-Aug-09 01:30N 56°08' E 012°29'1015.7
2018-Aug-09 00:52N 56°12' E 012°14'1215.9
2018-Aug-09 00:07N 56°10' E 011°53'515.8
2018-Aug-08 23:48N 56°08' E 011°44'5511.7
2018-Aug-08 19:06N 55°18' E 011°03'115.0
2018-Aug-08 19:00N 55°17' E 011°04'713.9
2018-Aug-08 18:30N 55°10' E 011°04'815.5
2018-Aug-08 18:00N 55°02' E 011°02'714.3
2018-Aug-08 17:30N 54°56' E 010°56'815.0
2018-Aug-08 17:00N 54°49' E 010°52'714.8
2018-Aug-08 16:30N 54°42' E 010°55'815.3
2018-Aug-08 16:00N 54°38' E 011°07'815.2
2018-Aug-08 15:30N 54°34' E 011°18'815.1
2018-Aug-08 15:00N 54°31' E 011°30'815.0
2018-Aug-08 14:30N 54°28' E 011°42'715.0
2018-Aug-08 14:00N 54°26' E 011°54'815.7
2018-Aug-08 13:30N 54°26' E 012°08'714.7
2018-Aug-08 13:00N 54°33' E 012°14'714.9
2018-Aug-08 12:30N 54°38' E 012°22'815.3
2018-Aug-08 12:00N 54°43' E 012°33'815.6
2018-Aug-08 11:30N 54°47' E 012°45'815.9
2018-Aug-08 11:00N 54°50' E 012°57'917.6
2018-Aug-08 10:30N 54°53' E 013°12'917.7
2018-Aug-08 10:00N 54°56' E 013°26'916.9
2018-Aug-08 09:30N 54°59' E 013°40'816.2
2018-Aug-08 09:00N 55°02' E 013°53'815.4
2018-Aug-08 08:30N 55°05' E 014°05'815.5
2018-Aug-08 08:00N 55°11' E 014°14'815.5
2018-Aug-08 07:30N 55°17' E 014°23'816.2
2018-Aug-08 07:00N 55°23' E 014°32'816.5
2018-Aug-08 06:30N 55°29' E 014°42'816.7
2018-Aug-08 06:00N 55°33' E 014°55'917.9
2018-Aug-08 05:30N 55°37' E 015°09'1020.1
2018-Aug-08 05:00N 55°41' E 015°25'1020.1
2018-Aug-08 04:30N 55°46' E 015°41'1020.2
2018-Aug-08 04:00N 55°51' E 015°56'1020.0
2018-Aug-08 03:30N 55°56' E 016°11'1019.9
2018-Aug-08 03:01N 56°02' E 016°26'1019.9
2018-Aug-08 02:30N 56°08' E 016°40'1019.5
2018-Aug-08 02:00N 56°15' E 016°53'1019.5
2018-Aug-08 01:31N 56°23' E 017°02'1019.6
2018-Aug-08 01:00N 56°33' E 017°07'1019.6
2018-Aug-08 00:30N 56°42' E 017°13'1019.6
2018-Aug-08 00:01N 56°51' E 017°18'1019.8
2018-Aug-07 23:30N 57°01' E 017°24'1019.7
2018-Aug-07 23:00N 57°10' E 017°29'1019.3
2018-Aug-07 22:30N 57°19' E 017°34'919.0
2018-Aug-07 22:00N 57°29' E 017°39'1019.0
2018-Aug-07 21:30N 57°38' E 017°42'918.9
2018-Aug-07 21:00N 57°47' E 017°44'1019.0
2018-Aug-07 20:30N 57°57' E 017°45'1018.9
2018-Aug-07 19:59N 58°07' E 017°47'919.2
2018-Aug-07 19:30N 58°16' E 017°49'  

Dump ship's entire track history